首页
METAR-TAF:

METAR-TAF

机场 :

福岡機場

福岡, 日本

纬度: 33-35N, 经度: 130-27E, 海拔: 9米

当前天气观测

该预报发布于29分钟前的10:30 UTC
风速4节,风向东北,在北转西北东转东南之间变化
温度 17°C
湿度 55%
气压 1020 hPa
能见度10公里或以上
少量云层高于3000英尺

METAR: RJFF 211030Z 05004KT 340V110 9999 FEW030 17/08 Q1020 NOSIG RMK 1CU030 A3014

时间: 19:59 (10:59 UTC)

预报

该预报发布于1小时和53分钟前的09:06 UTC
预报有效从21日的 09点(UTC)到 22日的 12点(UTC)
风速5节,风向南转南东
能见度10公里或以上
少量云层高于3000英尺
成为
从 22日的 03点(UTC)到 22日的 06点(UTC)
风速9节,风向北转西北
成为
从 22日的 09点(UTC)到 22日的 12点(UTC)
风速6节,风向东南

TAF: RJFF 210906Z 2109/2212 15005KT 9999 FEW030 BECMG 2203/2206 33009KT BECMG 2209/2212 14006KT

超过4000个机场的气象观测和天气预报(METAR&TAF报告)。

可查询的气象台以黄色和红色小点在地图上表示。

将鼠标移到小点上方,可查看气象台名称。

然后点击查看天气观测和预报。

如需切换地图:点击带黑十字的绿色按钮放大地图;点击带横线的绿色按钮缩小地图;或者点击绿色箭头查看邻近地区的地图。


METAR-TAF: